createdAt,value
2018-10-18T10:15:42.326Z,14240.00
2018-10-18T10:16:42.273Z,10896.00
2018-10-18T10:17:42.349Z,13976.00
2018-10-18T10:18:42.206Z,14508.00
2018-10-18T10:19:42.171Z,14648.00
2018-10-18T10:20:42.131Z,14680.00
2018-10-18T10:21:42.094Z,14644.00
2018-10-18T10:22:42.090Z,14620.00
2018-10-18T10:23:42.031Z,14376.00
2018-10-18T10:24:42.062Z,14392.00
2018-10-18T10:25:41.956Z,14524.00
2018-10-18T10:26:41.927Z,14176.00
2018-10-18T10:27:41.922Z,14028.00
2018-10-18T10:28:41.863Z,14312.00
2018-10-18T10:29:41.881Z,14376.00
2018-10-18T10:30:41.805Z,14184.00
2018-10-18T10:31:41.763Z,14268.00
2018-10-18T10:32:41.769Z,14108.00
2018-10-18T10:33:41.714Z,13620.00
2018-10-18T10:34:41.664Z,13992.00
2018-10-18T10:35:41.631Z,13840.00
2018-10-18T10:36:41.595Z,13572.00
2018-10-18T10:37:41.567Z,13824.00
2018-10-18T10:38:41.618Z,13736.00
2018-10-18T10:39:41.490Z,13608.00
2018-10-18T10:40:41.464Z,13676.00
2018-10-18T10:41:41.436Z,13596.00
2018-10-18T10:42:41.528Z,13836.00
2018-10-18T10:43:41.371Z,14872.00
2018-10-18T10:44:41.368Z,15600.00
2018-10-18T10:45:41.387Z,15748.00
2018-10-18T10:46:41.265Z,14804.00
2018-10-18T10:47:41.228Z,14988.00
2018-10-18T10:48:41.205Z,15432.00
2018-10-18T10:49:41.194Z,15504.00
2018-10-18T10:50:41.147Z,16832.00
2018-10-18T10:51:41.111Z,12456.00
2018-10-18T10:52:41.067Z,15964.00
2018-10-18T10:53:41.045Z,13872.00
2018-10-18T10:54:41.036Z,12800.00
2018-10-18T10:55:40.983Z,10380.00
2018-10-18T10:56:40.942Z,10388.00
2018-10-18T10:57:40.912Z,9404.00
2018-10-18T10:58:40.878Z,12996.00
2018-10-18T10:59:40.866Z,11472.00
2018-10-18T11:00:40.820Z,10544.00
2018-10-18T11:01:40.787Z,16064.00
2018-10-18T11:02:40.774Z,17376.00
2018-10-18T11:03:40.721Z,18432.00
2018-10-18T11:04:40.706Z,19136.00
2018-10-18T11:05:40.649Z,18752.00
2018-10-18T11:06:40.614Z,17952.00
2018-10-18T11:07:40.581Z,16512.00
2018-10-18T11:08:40.559Z,15644.00
2018-10-18T11:09:40.611Z,15060.00
2018-10-18T11:10:40.505Z,14792.00
2018-10-18T11:11:40.452Z,15048.00
2018-10-18T11:12:40.421Z,15548.00
2018-10-18T11:13:40.390Z,16608.00
2018-10-18T11:14:40.360Z,17344.00
2018-10-18T11:15:40.350Z,17760.00
2018-10-18T11:16:40.281Z,18144.00
2018-10-18T11:17:40.253Z,18912.00
2018-10-18T11:18:40.217Z,14876.00
2018-10-18T11:19:40.185Z,19360.00
2018-10-18T11:20:40.183Z,21184.00
2018-10-18T11:21:40.214Z,18336.00
2018-10-18T11:22:40.102Z,12532.00
2018-10-18T11:23:40.105Z,10916.00
2018-10-18T11:24:40.030Z,10632.00
2018-10-18T11:25:40.014Z,10960.00
2018-10-18T11:26:39.967Z,11020.00
2018-10-18T11:27:39.946Z,10536.00
2018-10-18T11:28:39.894Z,10880.00
2018-10-18T11:29:39.859Z,14628.00
2018-10-18T11:30:39.857Z,10756.00
2018-10-18T11:31:39.788Z,12344.00
2018-10-18T11:32:39.763Z,19104.00
2018-10-18T11:33:39.732Z,20384.00
2018-10-18T11:34:39.708Z,20960.00
2018-10-18T11:35:39.663Z,20480.00
2018-10-18T11:36:39.646Z,19552.00
2018-10-18T11:37:39.592Z,20832.00
2018-10-18T11:38:39.560Z,19680.00
2018-10-18T11:39:39.522Z,18368.00
2018-10-18T11:40:39.499Z,16736.00
2018-10-18T11:41:39.489Z,12448.00
2018-10-18T11:42:39.467Z,11472.00
2018-10-18T11:43:39.394Z,10768.00
2018-10-18T11:44:39.388Z,10708.00
2018-10-18T11:45:39.335Z,11192.00
2018-10-18T11:46:39.328Z,15036.00
2018-10-18T11:47:39.270Z,11612.00
2018-10-18T11:48:39.226Z,11884.00
2018-10-18T11:49:39.203Z,12524.00
2018-10-18T11:50:39.163Z,13304.00
2018-10-18T11:51:39.255Z,18592.00
2018-10-18T11:52:39.126Z,15476.00
2018-10-18T11:53:39.072Z,16008.00
2018-10-18T11:54:39.037Z,16468.00
2018-10-18T11:55:38.998Z,15776.00
2018-10-18T11:56:38.983Z,14148.00
2018-10-18T11:57:38.929Z,16704.00
2018-10-18T11:58:38.901Z,10832.00
2018-10-18T11:59:38.864Z,11036.00
2018-10-18T12:00:38.827Z,14900.00
2018-10-18T12:01:38.816Z,12712.00
2018-10-18T12:02:38.818Z,10880.00
2018-10-18T12:03:38.721Z,11484.00
2018-10-18T12:04:38.699Z,12592.00
2018-10-18T12:05:38.667Z,16896.00
2018-10-18T12:06:38.634Z,18656.00
2018-10-18T12:07:38.619Z,17920.00
2018-10-18T12:08:38.554Z,11888.00
2018-10-18T12:09:38.520Z,11728.00
2018-10-18T12:10:38.487Z,9168.00
2018-10-18T12:11:38.456Z,8816.00
2018-10-18T12:12:38.447Z,9524.00
2018-10-18T12:13:38.420Z,9896.00
2018-10-18T12:14:38.355Z,10700.00
2018-10-18T12:15:38.317Z,11748.00
2018-10-18T12:16:38.291Z,12300.00
2018-10-18T12:17:38.257Z,17024.00
2018-10-18T12:18:38.223Z,16608.00
2018-10-18T12:19:38.210Z,16608.00
2018-10-18T12:20:38.147Z,16704.00
2018-10-18T12:21:38.115Z,16320.00
2018-10-18T12:22:38.109Z,15712.00
2018-10-18T12:23:38.040Z,15136.00
2018-10-18T12:24:38.025Z,11096.00
2018-10-18T12:25:37.985Z,10860.00
2018-10-18T12:26:37.953Z,10772.00
2018-10-18T12:27:37.915Z,10572.00
2018-10-18T12:28:37.895Z,10296.00
2018-10-18T12:29:37.842Z,10276.00
2018-10-18T12:30:37.812Z,10704.00
2018-10-18T12:31:37.777Z,11828.00
2018-10-18T12:32:37.737Z,13364.00
2018-10-18T12:33:37.721Z,14852.00
2018-10-18T12:34:37.670Z,15236.00
2018-10-18T12:35:37.658Z,14440.00
2018-10-18T12:36:37.605Z,13288.00
2018-10-18T12:37:37.572Z,13048.00
2018-10-18T12:38:37.565Z,12620.00
2018-10-18T12:39:37.604Z,13236.00
2018-10-18T12:40:37.675Z,13704.00
2018-10-18T12:41:37.599Z,13148.00
2018-10-18T12:42:37.392Z,13016.00
2018-10-18T12:43:37.389Z,12256.00
2018-10-18T12:44:37.327Z,11156.00
2018-10-18T12:45:37.317Z,10032.00
2018-10-18T12:46:37.252Z,9176.00
2018-10-18T12:47:37.217Z,8808.00
2018-10-18T12:48:37.265Z,8852.00
2018-10-18T12:49:37.152Z,9288.00
2018-10-18T12:50:37.142Z,10224.00
2018-10-18T12:51:37.091Z,11388.00
2018-10-18T12:52:37.044Z,12664.00
2018-10-18T12:53:37.035Z,13440.00
2018-10-18T12:54:37.046Z,13120.00
2018-10-18T12:55:36.941Z,12416.00
2018-10-18T12:56:36.908Z,11512.00
2018-10-18T12:57:36.870Z,10604.00
2018-10-18T12:58:36.836Z,9920.00
2018-10-18T12:59:36.823Z,9520.00
2018-10-18T13:00:36.761Z,9612.00
2018-10-18T13:01:36.725Z,9400.00
2018-10-18T13:02:36.734Z,8648.00
2018-10-18T13:03:36.664Z,7732.00
2018-10-18T13:04:36.642Z,7064.00
2018-10-18T13:05:36.578Z,6720.00
2018-10-18T13:06:36.547Z,6476.00
2018-10-18T13:07:36.513Z,6484.00
2018-10-18T13:08:36.484Z,6660.00
2018-10-18T13:09:36.472Z,6928.00
2018-10-18T13:10:36.447Z,7268.00
2018-10-18T13:11:36.377Z,7736.00
2018-10-18T13:12:36.381Z,8400.00
2018-10-18T13:13:36.299Z,9456.00
2018-10-18T13:14:36.285Z,10652.00
2018-10-18T13:15:36.225Z,11684.00
2018-10-18T13:16:36.196Z,12296.00
2018-10-18T13:17:36.160Z,12136.00
2018-10-18T13:18:36.117Z,11544.00
2018-10-18T13:19:36.109Z,11060.00
2018-10-18T13:20:36.051Z,10608.00
2018-10-18T13:21:36.019Z,10488.00
2018-10-18T13:22:35.980Z,10232.00
2018-10-18T13:23:35.943Z,9604.00
2018-10-18T13:24:35.905Z,8852.00
2018-10-18T13:25:35.887Z,8412.00
2018-10-18T13:26:35.829Z,8200.00
2018-10-18T13:27:35.791Z,8036.00
2018-10-18T13:28:35.763Z,7748.00
2018-10-18T13:29:35.726Z,7520.00
2018-10-18T13:30:35.716Z,7460.00
2018-10-18T13:31:35.655Z,7600.00
2018-10-18T13:32:35.611Z,7768.00
2018-10-18T13:33:35.580Z,7924.00
2018-10-18T13:34:35.548Z,8036.00
2018-10-18T13:35:35.513Z,7972.00
2018-10-18T13:36:35.487Z,7812.00
2018-10-18T13:37:35.429Z,7468.00
2018-10-18T13:38:35.395Z,7028.00
2018-10-18T13:39:35.370Z,6764.00
2018-10-18T13:40:35.400Z,6780.00
2018-10-18T13:41:35.291Z,6928.00
2018-10-18T13:42:35.257Z,7200.00
2018-10-18T13:43:35.227Z,7640.00
2018-10-18T13:44:35.176Z,8088.00
2018-10-18T13:45:35.138Z,8340.00
2018-10-18T13:46:35.229Z,8692.00
2018-10-18T13:47:35.065Z,9276.00
2018-10-18T13:48:35.037Z,10004.00
2018-10-18T13:49:35.000Z,10476.00
2018-10-18T13:50:34.954Z,10716.00
2018-10-18T13:51:34.918Z,10520.00
2018-10-18T13:52:34.914Z,10020.00
2018-10-18T13:53:34.855Z,9092.00
2018-10-18T13:54:34.824Z,8284.00
2018-10-18T13:55:34.779Z,8028.00
2018-10-18T13:56:34.740Z,8228.00
2018-10-18T13:57:34.729Z,8612.00
2018-10-18T13:58:34.665Z,8952.00
2018-10-18T13:59:34.682Z,9096.00
2018-10-18T14:00:34.606Z,9016.00
2018-10-18T14:01:34.561Z,9056.00
2018-10-18T14:02:34.530Z,9168.00
2018-10-18T14:03:34.512Z,9236.00
2018-10-18T14:04:34.451Z,8920.00
2018-10-18T14:05:34.488Z,8312.00
2018-10-18T14:06:34.382Z,7776.00
2018-10-18T14:07:34.344Z,7528.00
2018-10-18T14:08:34.360Z,7548.00
2018-10-18T14:09:34.268Z,7516.00
2018-10-18T14:10:34.230Z,7192.00
2018-10-18T14:11:34.196Z,6848.00
2018-10-18T14:12:34.161Z,6372.00
2018-10-18T14:13:34.146Z,6124.00
2018-10-18T14:14:34.114Z,6204.00
2018-10-18T14:15:34.060Z,6400.00
2018-10-18T14:16:34.009Z,6640.00
2018-10-18T14:17:34.025Z,7136.00
2018-10-18T14:18:33.936Z,7488.00
2018-10-18T14:19:33.921Z,7752.00
2018-10-18T14:20:33.873Z,7992.00
2018-10-18T14:21:33.838Z,7928.00
2018-10-18T14:22:33.789Z,7536.00
2018-10-18T14:23:33.752Z,7072.00
2018-10-18T14:24:33.745Z,6792.00
2018-10-18T14:25:33.710Z,6732.00
2018-10-18T14:26:33.652Z,6760.00
2018-10-18T14:27:33.613Z,6748.00
2018-10-18T14:28:33.568Z,6776.00
2018-10-18T14:29:33.537Z,6912.00
2018-10-18T14:30:33.536Z,7096.00
2018-10-18T14:31:33.456Z,7156.00
2018-10-18T14:32:33.430Z,7076.00
2018-10-18T14:33:33.392Z,6908.00
2018-10-18T14:34:33.357Z,6624.00
2018-10-18T14:35:33.319Z,6236.00
2018-10-18T14:36:33.300Z,5908.00
2018-10-18T14:37:33.241Z,5708.00
2018-10-18T14:38:33.288Z,5568.00
2018-10-18T14:39:33.172Z,5392.00
2018-10-18T14:40:33.128Z,5160.00
2018-10-18T14:41:33.115Z,4968.00
2018-10-18T14:42:33.053Z,4756.00
2018-10-18T14:43:33.017Z,4556.00
2018-10-18T14:44:33.193Z,4412.00
2018-10-18T14:45:32.951Z,4384.00
2018-10-18T14:46:32.942Z,4444.00
2018-10-18T14:47:32.911Z,4516.00
2018-10-18T14:48:32.831Z,4592.00
2018-10-18T14:49:32.796Z,4588.00
2018-10-18T14:50:32.918Z,4492.00
2018-10-18T14:51:32.719Z,4296.00
2018-10-18T14:52:32.715Z,4044.00
2018-10-18T14:53:32.668Z,3852.00
2018-10-18T14:54:32.669Z,3760.00
2018-10-18T14:55:32.573Z,3764.00
2018-10-18T14:56:32.550Z,3812.00
2018-10-18T14:57:32.526Z,3812.00
2018-10-18T14:58:32.472Z,3756.00
2018-10-18T14:59:32.432Z,3696.00
2018-10-18T15:00:32.386Z,3744.00
2018-10-18T15:01:32.348Z,3868.00
2018-10-18T15:02:32.334Z,3936.00
2018-10-18T15:03:32.303Z,3952.00
2018-10-18T15:04:32.308Z,3952.00
2018-10-18T15:05:32.207Z,3972.00
2018-10-18T15:06:32.169Z,4040.00
2018-10-18T15:07:32.129Z,4172.00
2018-10-18T15:08:32.087Z,4264.00
2018-10-18T15:09:32.073Z,4232.00
2018-10-18T15:10:32.029Z,4224.00
2018-10-18T15:11:32.003Z,4148.00
2018-10-18T15:12:31.979Z,3992.00
2018-10-18T15:13:31.910Z,3920.00
2018-10-18T15:14:31.862Z,3780.00
2018-10-18T15:15:31.822Z,3560.00
2018-10-18T15:16:31.819Z,3432.00
2018-10-18T15:17:31.785Z,3316.00
2018-10-18T15:18:31.809Z,3156.00
2018-10-18T15:19:31.683Z,3020.00
2018-10-18T15:20:31.646Z,2928.00
2018-10-18T15:21:31.633Z,2928.00
2018-10-18T15:22:31.563Z,2924.00
2018-10-18T15:23:31.526Z,2908.00
2018-10-18T15:24:31.494Z,2944.00
2018-10-18T15:25:31.656Z,3020.00
2018-10-18T15:26:31.543Z,3060.00
2018-10-18T15:27:31.495Z,3016.00
2018-10-18T15:28:31.341Z,2948.00
2018-10-18T15:29:31.306Z,2832.00
2018-10-18T15:30:31.273Z,2736.00
2018-10-18T15:31:31.232Z,2716.00
2018-10-18T15:32:31.337Z,2748.00
2018-10-18T15:33:31.167Z,2712.00
2018-10-18T15:34:31.117Z,2712.00
2018-10-18T15:35:31.078Z,2544.00
2018-10-18T15:36:31.047Z,2440.00
2018-10-18T15:37:31.010Z,2444.00
2018-10-18T15:38:31.113Z,2472.00
2018-10-18T15:39:30.996Z,2460.00
2018-10-18T15:40:30.888Z,2384.00
2018-10-18T15:41:30.857Z,2236.00
2018-10-18T15:42:30.820Z,1980.00
2018-10-18T15:43:30.803Z,1792.00
2018-10-18T15:44:30.742Z,1652.00
2018-10-18T15:45:30.702Z,1556.00
2018-10-18T15:46:30.685Z,1456.00
2018-10-18T15:47:30.632Z,1384.00
2018-10-18T15:48:30.627Z,1412.00
2018-10-18T15:49:30.584Z,1452.00
2018-10-18T15:50:30.524Z,1444.00
2018-10-18T15:51:30.477Z,1428.00
2018-10-18T15:52:30.459Z,1400.00
2018-10-18T15:53:30.467Z,1384.00
2018-10-18T15:54:30.401Z,1388.00
2018-10-18T15:55:30.319Z,1404.00
2018-10-18T15:56:30.290Z,1428.00
2018-10-18T15:57:30.277Z,1440.00
2018-10-18T15:58:30.233Z,1428.00
2018-10-18T15:59:30.169Z,1424.00
2018-10-18T16:00:30.140Z,1408.00
2018-10-18T16:01:30.101Z,1376.00
2018-10-18T16:02:30.099Z,1316.00
2018-10-18T16:03:30.025Z,1260.00
2018-10-18T16:04:29.979Z,1204.00
2018-10-18T16:05:29.942Z,1160.00
2018-10-18T16:06:29.903Z,1112.00
2018-10-18T16:07:29.863Z,1052.00
2018-10-18T16:08:29.881Z,1008.00
2018-10-18T16:09:29.795Z,968.00
2018-10-18T16:10:29.762Z,948.00
2018-10-18T16:11:29.778Z,924.00
2018-10-18T16:12:29.682Z,896.00
2018-10-18T16:13:29.664Z,864.00
2018-10-18T16:14:29.608Z,836.00
2018-10-18T16:15:29.569Z,816.00
2018-10-18T16:16:29.525Z,800.00
2018-10-18T16:17:29.493Z,784.00
2018-10-18T16:18:29.473Z,768.00
2018-10-18T16:19:29.432Z,724.00
2018-10-18T16:20:29.378Z,696.00
2018-10-18T16:21:29.341Z,672.00
2018-10-18T16:22:29.294Z,652.00
2018-10-18T16:23:29.255Z,628.00
2018-10-18T16:24:29.251Z,588.00
2018-10-18T16:25:29.211Z,548.00
2018-10-18T16:26:29.213Z,504.00
2018-10-18T16:27:29.115Z,468.00
2018-10-18T16:28:29.067Z,432.00
2018-10-18T16:29:29.032Z,396.00
2018-10-18T16:30:29.023Z,360.00
2018-10-18T16:31:28.960Z,332.00
2018-10-18T16:32:28.923Z,304.00
2018-10-18T16:33:28.876Z,280.00
2018-10-18T16:34:28.839Z,256.00
2018-10-18T16:35:28.801Z,232.00
2018-10-18T16:36:28.791Z,208.00
2018-10-18T16:37:28.731Z,184.00
2018-10-18T16:38:28.693Z,164.00
2018-10-18T16:39:28.654Z,144.00
2018-10-18T16:40:28.609Z,128.00
2018-10-18T16:41:28.677Z,112.00
2018-10-18T16:42:28.535Z,100.00
2018-10-18T16:43:28.489Z,88.00
2018-10-18T16:44:28.459Z,76.00
2018-10-18T16:45:28.447Z,64.00
2018-10-18T16:46:28.376Z,56.00
2018-10-18T16:47:28.333Z,44.00
2018-10-18T16:48:29.159Z,40.00
2018-10-18T16:49:28.267Z,36.00
2018-10-18T16:50:28.249Z,28.00
2018-10-18T16:51:28.197Z,24.00
2018-10-18T16:52:28.142Z,16.00
2018-10-18T16:53:28.104Z,16.00
2018-10-18T16:54:28.123Z,12.00
2018-10-18T16:55:28.029Z,8.00
2018-10-18T16:56:27.994Z,8.00
2018-10-18T16:57:27.982Z,8.00
2018-10-18T16:58:27.917Z,8.00
2018-10-18T16:59:27.878Z,4.00
2018-10-18T17:00:27.854Z,4.00
2018-10-18T17:01:27.795Z,4.00
2018-10-18T17:02:27.765Z,4.00
2018-10-18T17:03:27.720Z,0.00
2018-10-18T17:04:27.856Z,4.00
2018-10-18T17:05:27.668Z,4.00
2018-10-18T17:06:27.619Z,0.00
2018-10-18T17:07:27.565Z,0.00
2018-10-18T17:08:27.528Z,0.00
2018-10-18T17:09:27.491Z,0.00
2018-10-18T17:10:27.483Z,0.00
2018-10-18T17:11:27.440Z,0.00
2018-10-18T17:12:27.365Z,0.00
2018-10-18T17:13:27.327Z,0.00
2018-10-18T17:14:27.287Z,0.00
2018-10-18T17:15:27.270Z,0.00
2018-10-18T17:16:27.214Z,0.00
2018-10-18T17:17:27.181Z,0.00
2018-10-18T17:18:27.294Z,0.00
2018-10-18T17:19:27.100Z,0.00
2018-10-18T17:20:27.234Z,0.00
2018-10-18T17:21:27.020Z,0.00
2018-10-18T17:22:26.983Z,0.00
2018-10-18T17:23:26.950Z,0.00
2018-10-18T17:24:26.924Z,0.00
2018-10-18T17:25:26.857Z,0.00
2018-10-18T17:26:26.862Z,0.00
2018-10-18T17:27:26.878Z,0.00
2018-10-18T17:28:26.752Z,0.00
2018-10-18T17:29:26.733Z,0.00
2018-10-18T17:30:26.671Z,0.00
2018-10-18T17:31:26.631Z,0.00
2018-10-18T17:32:26.616Z,0.00
2018-10-18T17:33:26.547Z,0.00
2018-10-18T17:34:26.540Z,0.00
2018-10-18T17:35:26.494Z,0.00
2018-10-18T17:36:26.433Z,0.00
2018-10-18T17:37:26.389Z,0.00
2018-10-18T17:38:26.365Z,0.00
2018-10-18T17:39:26.311Z,0.00
2018-10-18T17:40:26.317Z,0.00
2018-10-18T17:41:26.248Z,0.00
2018-10-18T17:42:26.202Z,0.00
2018-10-18T17:43:26.162Z,0.00
2018-10-18T17:44:26.138Z,0.00
2018-10-18T17:45:26.103Z,0.00
2018-10-18T17:46:26.038Z,0.00
2018-10-18T17:47:26.003Z,0.00
2018-10-18T17:48:25.971Z,0.00
2018-10-18T17:49:25.933Z,0.00
2018-10-18T17:50:25.881Z,0.00
2018-10-18T17:51:25.885Z,0.00
2018-10-18T17:52:25.854Z,0.00
2018-10-18T17:53:25.801Z,0.00
2018-10-18T17:54:25.741Z,0.00
2018-10-18T17:55:25.715Z,0.00
2018-10-18T17:56:25.675Z,0.00
2018-10-18T17:57:25.615Z,0.00
2018-10-18T17:58:25.578Z,0.00
2018-10-18T17:59:25.537Z,0.00
2018-10-18T18:00:25.565Z,0.00
2018-10-18T18:01:25.522Z,0.00
2018-10-18T18:02:25.439Z,0.00
2018-10-18T18:03:25.387Z,0.00
2018-10-18T18:04:25.335Z,0.00
2018-10-18T18:05:25.304Z,0.00
2018-10-18T18:06:25.453Z,0.00
2018-10-18T18:07:25.228Z,0.00
2018-10-18T18:08:25.179Z,0.00
2018-10-18T18:09:25.192Z,0.00
2018-10-18T18:10:25.109Z,0.00
2018-10-18T18:11:25.071Z,0.00
2018-10-18T18:12:25.050Z,0.00
2018-10-18T18:13:24.999Z,0.00
2018-10-18T18:14:24.986Z,0.00
2018-10-18T18:15:24.911Z,0.00
2018-10-18T18:16:24.892Z,0.00
2018-10-18T18:17:24.824Z,0.00
2018-10-18T18:18:24.789Z,0.00
2018-10-18T18:19:24.748Z,0.00
2018-10-18T18:20:24.749Z,0.00
2018-10-18T18:21:24.712Z,0.00
2018-10-18T18:22:24.629Z,0.00
2018-10-18T18:23:24.595Z,0.00
2018-10-18T18:24:24.569Z,0.00
2018-10-18T18:25:24.567Z,0.00
2018-10-18T18:26:32.544Z,0.00
2018-10-18T18:27:24.483Z,0.00
2018-10-18T18:28:24.446Z,0.00
2018-10-18T18:29:24.376Z,0.00
2018-10-18T18:30:24.321Z,0.00
2018-10-18T18:31:24.292Z,0.00
2018-10-18T18:32:24.257Z,0.00
2018-10-18T18:33:24.241Z,0.00
2018-10-18T18:34:24.177Z,0.00
2018-10-18T18:35:24.143Z,0.00
2018-10-18T18:36:24.582Z,0.00
2018-10-18T18:37:24.084Z,0.00
2018-10-18T18:38:24.053Z,0.00
2018-10-18T18:39:23.987Z,0.00
2018-10-18T18:40:23.931Z,0.00
2018-10-18T18:41:23.891Z,0.00
2018-10-18T18:42:23.855Z,0.00
2018-10-18T18:43:23.833Z,0.00
2018-10-18T18:44:23.775Z,0.00
2018-10-18T18:45:35.541Z,0.00
2018-10-18T18:46:24.610Z,0.00
2018-10-18T18:47:24.665Z,0.00
2018-10-18T18:48:23.794Z,0.00
2018-10-18T18:49:23.601Z,0.00
2018-10-18T18:50:23.560Z,0.00
2018-10-18T18:51:23.622Z,0.00
2018-10-18T18:52:23.495Z,0.00
2018-10-18T18:53:23.513Z,0.00
2018-10-18T18:54:23.459Z,0.00
2018-10-18T18:55:23.367Z,0.00
2018-10-18T18:56:23.319Z,0.00
2018-10-18T18:57:23.303Z,0.00
2018-10-18T18:58:23.316Z,0.00
2018-10-18T18:59:23.210Z,0.00
2018-10-18T19:00:23.234Z,0.00
2018-10-18T19:01:23.149Z,0.00
2018-10-18T19:02:23.083Z,0.00
2018-10-18T19:03:23.036Z,0.00
2018-10-18T19:04:23.013Z,0.00
2018-10-18T19:05:22.956Z,0.00
2018-10-18T19:06:22.963Z,0.00
2018-10-18T19:07:22.912Z,0.00
2018-10-18T19:08:22.875Z,0.00
2018-10-18T19:09:22.823Z,0.00
2018-10-18T19:10:22.754Z,0.00
2018-10-18T19:11:22.819Z,0.00
2018-10-18T19:12:22.764Z,0.00
2018-10-18T19:13:22.707Z,0.00
2018-10-18T19:14:22.639Z,0.00
2018-10-18T19:15:22.569Z,0.00
2018-10-18T19:16:22.565Z,0.00
2018-10-18T19:17:22.511Z,0.00
2018-10-18T19:18:22.447Z,0.00
2018-10-18T19:19:22.409Z,0.00
2018-10-18T19:20:22.373Z,0.00
2018-10-18T19:21:22.391Z,0.00
2018-10-18T19:22:22.292Z,0.00
2018-10-18T19:23:22.320Z,0.00
2018-10-18T19:24:22.204Z,0.00
2018-10-18T19:25:22.183Z,0.00
2018-10-18T19:26:22.194Z,0.00
2018-10-18T19:27:22.153Z,0.00
2018-10-18T19:28:22.046Z,0.00
2018-10-18T19:29:22.001Z,0.00
2018-10-18T19:30:21.956Z,0.00
2018-10-18T19:31:21.957Z,0.00
2018-10-18T19:32:21.881Z,0.00
2018-10-18T19:33:21.838Z,0.00
2018-10-18T19:34:21.825Z,0.00
2018-10-18T19:35:21.792Z,0.00
2018-10-18T19:36:21.738Z,0.00
2018-10-18T19:37:21.712Z,0.00
2018-10-18T19:38:21.656Z,0.00
2018-10-18T19:39:21.620Z,0.00
2018-10-18T19:40:21.573Z,0.00
2018-10-18T19:41:21.567Z,0.00
2018-10-18T19:42:21.488Z,0.00
2018-10-18T19:43:21.455Z,0.00
2018-10-18T19:44:21.412Z,0.00
2018-10-18T19:45:21.366Z,0.00
2018-10-18T19:46:21.444Z,0.00
2018-10-18T19:47:21.290Z,0.00
2018-10-18T19:48:21.278Z,0.00
2018-10-18T19:49:21.228Z,0.00
2018-10-18T19:50:21.177Z,0.00
2018-10-18T19:51:21.163Z,0.00
2018-10-18T19:52:21.225Z,0.00
2018-10-18T19:53:21.048Z,0.00
2018-10-18T19:54:21.075Z,0.00
2018-10-18T19:55:20.978Z,0.00
2018-10-18T19:56:20.935Z,0.00
2018-10-18T19:57:20.889Z,0.00
2018-10-18T19:58:20.889Z,0.00
2018-10-18T19:59:20.829Z,0.00
2018-10-18T20:00:20.810Z,0.00
2018-10-18T20:01:20.728Z,0.00
2018-10-18T20:02:20.693Z,0.00
2018-10-18T20:03:20.650Z,0.00
2018-10-18T20:04:20.642Z,0.00
2018-10-18T20:05:20.577Z,0.00
2018-10-18T20:06:20.544Z,0.00
2018-10-18T20:07:20.563Z,0.00
2018-10-18T20:08:20.488Z,0.00
2018-10-18T20:09:20.422Z,0.00
2018-10-18T20:10:20.432Z,0.00
2018-10-18T20:11:20.342Z,0.00
2018-10-18T20:12:20.330Z,0.00
2018-10-18T20:13:20.291Z,0.00
2018-10-18T20:14:20.223Z,0.00
2018-10-18T20:15:20.170Z,0.00
2018-10-18T20:16:20.180Z,0.00
2018-10-18T20:17:20.109Z,0.00
2018-10-18T20:18:20.134Z,0.00
2018-10-18T20:19:20.028Z,0.00
2018-10-18T20:20:19.984Z,0.00
2018-10-18T20:21:19.953Z,0.00
2018-10-18T20:22:19.950Z,0.00
2018-10-18T20:23:19.904Z,0.00
2018-10-18T20:24:19.824Z,0.00
2018-10-18T20:25:19.881Z,0.00
2018-10-18T20:26:20.176Z,0.00
2018-10-18T20:27:19.708Z,0.00
2018-10-18T20:28:19.675Z,0.00
2018-10-18T20:29:19.656Z,0.00
2018-10-18T20:30:19.631Z,0.00
2018-10-18T20:31:19.562Z,0.00
2018-10-18T20:32:19.569Z,0.00
2018-10-18T20:33:19.466Z,0.00
2018-10-18T20:34:19.482Z,0.00
2018-10-18T20:35:19.389Z,0.00
2018-10-18T20:36:19.343Z,0.00
2018-10-18T20:37:19.299Z,0.00
2018-10-18T20:38:19.273Z,0.00
2018-10-18T20:39:19.365Z,0.00
2018-10-18T20:40:19.209Z,0.00
2018-10-18T20:41:19.142Z,0.00
2018-10-18T20:42:19.122Z,0.00
2018-10-18T20:43:19.088Z,0.00
2018-10-18T20:44:19.024Z,0.00
2018-10-18T20:45:19.030Z,0.00
2018-10-18T20:46:18.945Z,0.00
2018-10-18T20:47:19.019Z,0.00
2018-10-18T20:48:18.903Z,0.00
2018-10-18T20:49:18.924Z,0.00
2018-10-18T20:50:18.824Z,0.00
2018-10-18T20:51:18.790Z,0.00
2018-10-18T20:52:18.754Z,0.00
2018-10-18T20:53:18.721Z,0.00
2018-10-18T20:54:18.635Z,0.00
2018-10-18T20:55:18.677Z,0.00
2018-10-18T20:56:18.537Z,0.00
2018-10-18T20:57:18.511Z,0.00
2018-10-18T20:58:18.473Z,0.00
2018-10-18T20:59:18.437Z,0.00
2018-10-18T21:00:18.474Z,0.00
2018-10-18T21:01:18.373Z,0.00
2018-10-18T21:02:18.326Z,0.00
2018-10-18T21:03:18.270Z,0.00
2018-10-18T21:04:18.236Z,0.00
2018-10-18T21:05:18.216Z,0.00
2018-10-18T21:06:18.196Z,0.00
2018-10-18T21:07:18.112Z,0.00
2018-10-18T21:08:18.063Z,0.00
2018-10-18T21:09:18.026Z,0.00
2018-10-18T21:10:18.002Z,0.00
2018-10-18T21:11:18.001Z,0.00
2018-10-18T21:12:17.910Z,0.00
2018-10-18T21:13:17.886Z,0.00
2018-10-18T21:14:17.837Z,0.00
2018-10-18T21:15:17.832Z,0.00
2018-10-18T21:16:17.764Z,0.00
2018-10-18T21:17:17.728Z,0.00
2018-10-18T21:18:17.667Z,0.00
2018-10-18T21:19:17.622Z,0.00
2018-10-18T21:20:17.610Z,0.00
2018-10-18T21:21:17.582Z,0.00
2018-10-18T21:22:17.569Z,0.00
2018-10-18T21:23:17.613Z,0.00
2018-10-18T21:24:17.433Z,0.00
2018-10-18T21:25:17.413Z,0.00
2018-10-18T21:26:17.362Z,0.00
2018-10-18T21:27:17.319Z,0.00
2018-10-18T21:28:17.296Z,0.00
2018-10-18T21:29:17.240Z,0.00
2018-10-18T21:30:17.220Z,0.00
2018-10-18T21:31:17.162Z,0.00
2018-10-18T21:32:17.110Z,0.00
2018-10-18T21:33:17.079Z,0.00
2018-10-18T21:34:17.080Z,0.00
2018-10-18T21:35:17.114Z,0.00
2018-10-18T21:36:16.962Z,0.00
2018-10-18T21:37:16.928Z,0.00
2018-10-18T21:38:16.903Z,0.00
2018-10-18T21:39:16.847Z,0.00
2018-10-18T21:40:16.797Z,0.00
2018-10-18T21:41:16.795Z,0.00
2018-10-18T21:42:16.717Z,0.00
2018-10-18T21:43:16.679Z,0.00
2018-10-18T21:44:16.647Z,0.00
2018-10-18T21:45:16.612Z,0.00
2018-10-18T21:46:16.587Z,0.00
2018-10-18T21:47:16.602Z,0.00
2018-10-18T21:48:16.481Z,0.00
2018-10-18T21:49:16.472Z,0.00
2018-10-18T21:50:16.407Z,0.00
2018-10-18T21:51:16.444Z,0.00
2018-10-18T21:52:16.330Z,0.00
2018-10-18T21:53:16.279Z,0.00
2018-10-18T21:54:16.263Z,0.00
2018-10-18T21:55:16.210Z,0.00
2018-10-18T21:56:16.159Z,0.00
2018-10-18T21:57:16.188Z,0.00
2018-10-18T21:58:16.169Z,0.00
2018-10-18T21:59:16.080Z,0.00
